警務消防

2020/06/20

定点 富山空港 2020/6/20 sat

RJNT 192300Z 01007KT 9999 -SHRA FEW005 SCT015 BKN025 19/16 Q1011

たまたま休みが続いて、ちょい早めに空港。

20200620_rjnt_00ja9690

JA9690 AS332L AKF

昨日整備していたスパビューさんが出発です。

###

 

###

20200620_rjnt_01ja219a

この時期には珍しい北風で、サークリング

20200620_rjnt_02ja219a

320NEO 富山では初撮影

20200620_rjnt_03ja219a

空港の保安車が急いで02エンドへ

20200620_rjnt_04ja219a

いい捻り

20200620_rjnt_05ja219a

20200620_rjnt_06ja219a

ANA313 RJTT-RJNT JA219A A320-271N

20200620_rjnt_07ja219a

トンビさん危機一髪 しばらく大型機が来なかったので、鳥の天下になっています。

20200620_rjnt_08ja219a

これは静かです。

20200620_rjnt_09ja219a

搭乗客は40人ぐらい

20200620_rjnt_10ja01ad

調子が悪いのか、まだいる JA01AD

RJNT 200000Z 01007KT 9999 -SHRA FEW005 SCT015 BKN025 19/15 Q1011

20200620_rjnt_11ja219a

20200620_rjnt_12ja219a

20200620_rjnt_13ja219a

ANA316 RJNT-RJTT JA219A A320-271N

20200620_rjnt_14ja219a

そのうちバードストライク起こりそう

RJNT 200100Z 04005KT 360V070 9999 VCSH FEW005 SCT015 BKN025 20/14 Q1012

20200620_rjnt_15ja17ac

定期便が行ってからドクヘリ事案

20200620_rjnt_16fdp

患者さんは救急車で医師同乗で直接病院へ

20200620_rjnt_17ja17ac

現場に残った要員を回収して

20200620_rjnt_18ja17ac

JA17AC A109SP SAK 富山県ドクターへり

###

 

###

20200620_rjnt_19ja17ac

富大病院へ

RJNT 200200Z 01004KT 350V050 9999 -SHRA FEW005 SCT015 BKN025 20/16 Q1012

20200620_rjnt_20ja17ac

富大病院HP 搬送した救急車が引き上げていきます。

20200620_rjnt_21ja17ac

ドクターが戻ってきて、エンジンスタート

###

 

###

RJNT 200300Z 02007KT 350V060 9999 VCSH FEW005 SCT015 BKN025 20/15 Q1011

20200620_rjnt_22ja6506

JA6506 AS350B3 AKF

午後は、これにて引き上げ。夕方 JA9785 つくば航空が来ました。

 

| | コメント (0)

2020/05/30

定点 富山空港 2020/5/30 sat

昨日は、東京の都心をブルーインパルスが、医療従事者等への感謝を表す航過飛行が大人気でした。奇しくも当地では、その時間に富山県ドクターヘリさんが、実任務で飛行していました。すっかり身近になり、すぐ来てくれる重要な資源となっています。

RJNT 292300Z 21003KT 130V280 9999 FEW020 20/13 Q1020

20200530_rjnt_00ja17ac

小生の感謝の意は、そんなドクヘリさんを地道に記録するところ。

20200530_rjnt_01ja17ac

JA17AC A109SP SAK 富山県ドクターヘリ

今朝の御出勤

RJNT 300000Z VRB04KT 9999 FEW020 21/09 Q1020

20200530_rjnt_02ja9411

空港では、昨日来た中日本さんが出発

20200530_rjnt_03ja9411

JA9411 AS350B NNK

20200530_rjnt_04fav

救急医療搬送車が朝のランニング

RJNT 300100Z 36007KT 320V060 9999 FEW020 23/13 Q1020

20200530_rjnt_05ohlwl

FIN78 RJBB-EFHK OH-LWL A350-941

20200530_rjnt_06ja9411

JA9411↓

RJNT 300200Z 36009KT 9999 FEW020 23/12 Q1020

20200530_rjnt_07ja2410

JA6512↓ AS350B3 AKF

 

| | コメント (0)

2020/05/26

定点 富山空港他 2020/5/26 tue

緊急事態宣言が解除されたとは言え、社会生活が以前の様に戻るはずもなく、まだまだ空港は閑古鳥が鳴いています。さて、昨日新潟の第九管区から大和堆へ保安船団が出航したとのことで、地元連の動向を確認に廻ってみた。

RJNT 260000Z VRB02KT 9999 FEW015 BKN/// 23/18 Q1008

20200526_fushiki_00ps203

PS203「のりくら」さんは在港

20200526_fushiki_01bird

釣りのおじさんが投げたお魚で朝食中の烏さん

20200526_fushiki_02bird

この子も欲しそうに眺めていましたが・・

20200526_fushiki_03ps203

烏さんが一寸目を離した隙にトンビさんがさらっていきました。

20200526_fushiki_04toyomaru33

第三十三東洋丸 大和海運(旭タンカー) JD3728

20200526_fushiki_05ps203

「のりくら」さんから搭載ボートが降ろされて

20200526_fushiki_06ps203

ボートの操縦訓練の模様です。

20200526_fushiki_07tateyama

伏木税関の監視船「たてやま」出航です。

20200526_fushiki_08tateyama

動いているのを見れてラッキー。それにしても万葉埠頭に建設中のコレ、何もの?

20200526_fushiki_09fushikilh

伏木指向灯

20200526_fushiki_10ps203m1

丁度沖合に海保ボート

20200526_fushiki_11ps203m1

スラロームで波を蹴立ててGO

20200526_fushiki_12fushikilh

今年の夏の海のイベントは、すでに中止が決まっています。

RJNT 260100Z 36006KT 280V040 9999 FEW020 BKN025 BKN/// 24/18 Q1008

20200526_fushiki_13kaioumaru

海王丸は、公開が再開しています。

20200526_fushiki_14kaioumaru

それでも人影は少なく、ひっそり。

20200526_fushiki_15pl04

PL04「やひこ」さん

これにて海は終わりにして、河原に転戦。

19RJNT 260200Z 28005KT 230V340 9999 FEW020 SCT025 OVC/// 24/17 Q1007

20200526_rjnt_00ja17ac

「つるぎ」さんの到着を待っていたら、ドクヘリ事案

20200526_rjnt_01ja139t

お山を廻ってきた模様。

20200526_rjnt_02ja139t

JA139T AW139 富山県警察

20200526_rjnt_03ja17ac

ドクヘリ事案に急行

20200526_rjnt_04ja17ac

収容され、県中搬送

###

 

###

20200526_rjnt_05fdp

今回は、南部出張所コンビ

RJNT 260300Z 33006KT 290V360 9999 FEW020 SCT030 OVC/// 25/17 Q1007

20200526_rjnt_06ja6512

JA6512↓ AS350B3 AKF

RJNT 260500Z 28011KT 9999 VCSH FEW020 SCT030 OVC/// 25/18 Q1007

20200526_rjnt_07ja9439

JA9439 Fuji204B-2 SNK RJNT↓

お家に帰ったら、遠くから地獄の黙示録。アビームに来ると単なるエンジン音だけになっちゃいますけど。

| | コメント (0)

2020/05/23

捜索 滑川市 2020/5/23 sat

本日は、お家でまったり総火演でも見ようかと思っていたら、早朝から何やら姦しい。

RJNT 222200Z VRB02KT 9999 FEW003 SCT008 BKN110 16/14 Q1014

20200523_namerikawa_00ja139t

最初は、山かなって思っていたのですが、どうやら海

20200523_namerikawa_01ja139t

早々に朝飯を掻き込んで、現場探しに

20200523_namerikawa_02pl04

沖合には、PL04「やひこ」さんが

20200523_namerikawa_03tsurugi

漁業監視船「つるぎ」も捜索に参加していたようで、撤収

RJNT 222300Z VRB02KT 9999 FEW005 BKN110 17/14 Q1014

20200523_namerikawa_04ja139t

JA139T AW139 富山県警察「つるぎ」

沿岸をゆっくり舐めるように捜索中

20200523_namerikawa_05ja139t

「つるぎ」さんの前には、海保さんが捜査。富山空港へ朝食に行っています。

20200523_namerikawa_06oyamamaru

富山県東部消防組合の救助艇「雄山丸」

20200523_namerikawa_07ja139t

「つるぎ」さんも一旦撤収

20200523_namerikawa_08pl04

現場に近づくと・・

20200523_namerikawa_09sensui

東部消防の潜水隊が捜索中でした。

20200523_namerikawa_10pl04

「雄山丸」撤収

20200523_namerikawa_11tateyamamaru

滑川漁港には県水産研究所の調査船「立山丸」が係留されています。

20200523_namerikawa_12sensui

潜水隊撤収 どうやら、釣り人が突堤から落ちた模様とのこと

20200523_namerikawa_13ja970a

空港で給油した海保「らいちょう2号」が捜索復帰

20200523_namerikawa_14ja970a

JA970A AW139 JCG

20200523_namerikawa_15genba

現場はこちら キラリン灯台のところ

20200523_namerikawa_16ja970a

一旦沿岸を捜索して、少し沖あいを西へ

20200523_namerikawa_17ja970a

早朝からご苦労様ですね。

RJNT 230000Z VRB01KT 9999 FEW005 SCT100 BKN120 19/15 Q1013

20200523_namerikawa_18ja970a

後の情報として、事案発生は昨日夕方とのこと

20200523_namerikawa_19pl04

船舶での捜索は中断して、空からの捜索のみになったようです。

20200523_namerikawa_20pl04

総火演の時間が迫ってきたので、撤収しました。

この後、「つるぎ」さんが再度捜索に出てましたが、見つかっていないようです。

| | コメント (0)

2020/05/21

定点 富山空港 2020/5/21 thu

5月14日に新型コロナウイルスに関する緊急事態宣言の一部解除され、富山県は現在「Stage2」の措置実施中。

富山空港の定期便は、現在国内国際とも全部運休は継続です。なお本日発表があり、羽田線は6月16日から一往復のみ復活するようです。

RJNT 210100Z VRB02KT 9999 FEW020 SCT050 BKN070 17/10 Q1013

20200521_rjnt_00ja139t

JA139T↑ AW139 富山県警察

20200521_rjnt_01ja139t

今日も、山岳訓練の模様。

20200521_rjnt_02terminal

そんな富山空港ターミナルを確認。出入国管理庁の事務所は営業中なので、それらのお客さんが出入りしています。

20200521_rjnt_03terminal

到着情報ボードは、全便掲示されていますが、ステータスが運休

20200521_rjnt_04terminal

全日空カウンターも開店休業

20200521_rjnt_05terminal

便情報は運休

20200521_rjnt_06terminal

出発ゲートは、始発便の状態でシャッターが降りたまま。

20200521_rjnt_07terminal

出発ボードも到着と同様

20200521_rjnt_08terminal

飲食店は喫茶以外は休業中

20200521_rjnt_09terminal

一応、デッキには昇れます。

20200521_rjnt_10terminal

GSEは勢ぞろいして展示じゃない、駐車中。

20200521_rjnt_11terminal

エレベータは4人までよ・・ 爪楊枝はありませんでした。

20200521_rjnt_12terminal

雪の大谷は、お客さんもなく寂しそう。

20200521_rjnt_13terminal

国際線カウンターは閉鎖中

RJNT 210200Z 28008KT 240V330 9999 FEW025 SCT050 BKN070 18/11 Q1013

20200521_rjnt_14shikibousaikan

四季防災館は、5月20日から再開しました。

20200521_rjnt_15shikibousaikan

消防学校は座学中か、ひっそり

20200521_rjnt_16shikibousaikan

学校所属車両がずらーり。

20200521_rjnt_17shikibousaikan

四季防災館入り口前

20200521_rjnt_18shikibousaikan

JA6768さんの写真は健在でした。

20200521_rjnt_19shikibousaikan

防災ヘリコプターの展示コーナー

20200521_rjnt_20shikibousaikan

テールローターのところに新「とやま」さん

20200521_rjnt_21shikibousaikan

20200521_rjnt_22shikibousaikan

また、ちびっ子の声が木霊するとイイね。

20200521_rjnt_23shikibousaikan

通常とおりに展示、体験できますので、密にならない人数でご利用ください。

RJNT 210300Z 27007KT 220V320 9999 FEW020 SCT030 BKN050 18/11 Q1013

20200521_rjnt_24ja139t

「つるぎ」さん ご帰還

20200521_rjnt_25ja139t

20200521_rjnt_26ja139t

午後からも、他のミッションへ

20200521_rjnt_27ja17ac

JA17AC A109SP SAK 富山県ドクヘリ

ドクヘリさんは代替機での運用中

午後に JA9965 珍しいスパビューさんが飛来されました。

| | コメント (0)

2020/05/17

定点 富山空港他 2020/5/17 sun

定点と言いながら、道中寄り道が主題となってしまいました。

RJNT 162300Z VRB02KT 9999 -SHRA FEW003 BKN010 BKN020 18/16 Q1006

20200517_dh_00ja17ac

ご出勤(本日は代打さん)

20200517_dh_01ja17ac

JA17AC A109SP SAK 富山県ドクヘリ

RJNT 170100Z 25008KT 9999 FEW010 SCT015 BKN020 20/17 Q1006

20200517_dh_02toe

河原で読書。毎日一度ランニングがお仕事です。

RJNT 170300Z 27008KT 240V320 9999 SCT015 BKN020 21/16 Q1006

20200517_dh_03ja17ac

空港至近でドクヘリ事案

20200517_dh_04ja17ac

病院搬送が決まったようです。

20200517_dh_05ja17ac

住宅街に近いところで、結構ギャラリーが来ていた。

20200517_dh_06ja17ac

さてまいりましょう。

###

 

 

###

本日の接触 無

 

| | コメント (0)

2020/05/14

巡回 富山空港他 2020/5/14 thu

昨日のスタアラをもって富山空港の定期便は、月末までお休みです。緊急事態制限は、今晩解除されるようですが、働くお船の動向を確認してきました。

RJNT 132300Z 20008KT 9999 FEW090 19/03 Q1019

20200514_minato_00jintsu

「神通」さんは、国旗も上がらずお休み中。

RJNT 140000Z 23003KT 150V300 9999 FEW090 21/03 Q1018

20200514_minato_01ps203

PS203「のりくら」さんは、もう出航して活動中。

20200514_minato_02tsurugi

富山県漁業取締船「つるぎ」さんは、パトロールに出航

20200514_minato_03kaioumaru

「海王丸」は、休業中

20200514_minato_04kairyu

渡船、曳舟さんは係留中

20200514_minato_05kairyu

今日は、橙の渡船「海竜」さんが当番

20200514_minato_06raichou

「らいちょう」「日本海」さんは、ひっそりと動きがなさそう。

20200514_minato_07shinkou

20200514_minato_08manyousen

偶然、万葉線到着

20200514_minato_09manyousen

越の潟駅 いつのまにか綺麗な待合室が出来ていた。

20200514_minato_10manyousen

ドラえもんは、お休み中

20200514_minato_11pl04

PL04「やひこ」さんは、グラインダーが廻って塗装保守中。

20200514_minato_12pl04

20200514_minato_13koshikaze

港湾業務艇「なごかぜ」さんは、出航準備中

RJNT 140100Z 24004KT 190V290 9999 FEW090 23/06 Q1018

20200514_minato_14himisen

丁度、氷見線氷見行きがのんびりと

20200514_rjnt_15yamato

消防艇「やまと」とCL68「たちかぜ」

RJNT 140200Z VRB03KT 9999 FEW090 SCT/// 25/06 Q1018

河原へ廻ります。

20200514_rjnt_16ja6502

JA6502↑ AS350B3 AKF

20200514_rjnt_17ja970a

JA970A AW139 JCG

20200514_rjnt_18ja970a

脚を引っ込めるところ

RJNT 140400Z 35007KT 310V060 CAVOK 26/01 Q1017

20200514_rjnt_19ja139t

JA139T↑ AW139 富山県警察

RJNT 140500Z VRB03KT CAVOK 26/01 Q1017

この後、NHKの JA32NH さんが取材してからFSL。

ドクヘリさんは、飛騨ミッション

20200514_toyama_20tateyama

平野から立山連峰が綺麗に拝めます。

20200514_toyama_21tateyama

立山もだいぶ黒くなってきました。

20200514_toyama_22tateyama

称名滝には、露払いと太刀持ちが出来ています。

本日の接触 消耗品購入でホームセンターのお姉さん

 

| | コメント (0)

2020/05/11

定点 富山空港他 2020/5/11 mon

断密でパトロール。各地でBBQの苦情が出ていますが、浜も御多分にもれず、残炭や紙食器、ペットボトルの放置が目に余ります。証拠を晒したいところですが、ブログが汚れるので、割愛します。

RJNT 102300Z 28003KT 200V350 9999 FEW020 20/15 Q1006

20200511_0rjnt_00ja620a

機材繰りなのか、手羽付の飛来となりました。

20200511_0rjnt_01ja620a

ANA313 RJTT-RJNT JA620A B767-381ER

20200511_0rjnt_02ja620a

気味悪いほどのスカスカでしょうね。

RJNT 110000Z 32007KT 280V340 9999 FEW020 22/15 Q1005

20200511_0rjnt_03ja620a

川は雪解け水で、水量が増えています。

20200511_0rjnt_04ja620a

ANA316 RJNT-RJTT JA620A B767-381ER

20200511_0rjnt_05ja620a

張りのあるスマートな姿。今日だけかも。

RJNT 110100Z VRB03KT 9999 FEW030 23/15 Q1005

20200511_0rjnt_06ja139t

JA139T AW139 富山県警察

20200511_0rjnt_07ja139t

RW上で春のダンス その後訓練にお出かけ。その後JA01ADさんが測量に出発でした。

###

 

###

20200511_1banbajima_08tsurugi

ちょっと息抜きながら、馬場島まで。

20200511_1banbajima_09ja139t

ちょっと期待してましたが、ほんとに表れてくれました。

20200511_1banbajima_10ja139t

谷筋を右旋回しながら降りてきました。

20200511_1banbajima_11ja139t

馬場島場外へローアプローチして、帰投。

20200511_1banbajima_12banbajima

今年は、山開きは行われないけれど、忠魂。

20200511_1banbajima_13banbajima

馬場島場外

20200511_1banbajima_14c801112

80-1112 B777-3SBER 701SQ S12

ふいにラジオ入感。捜索したら、かろうじてインサイト。

20200511_1banbajima_15banbajima

鉄塔美

20200511_1banbajima_16tsurugi

一気に雪解けが進んでいます。

(動画失敗したのは、内緒)

本日の接触 馬場島、登山のおっちゃん(話しかけてこないで・・)、道を尋ねてきたお兄さん(車内から)。ここは誰もいないと思っていたところに、人恋しいのかリスクあり。

 

| | コメント (0)

2020/04/11

定点 富山空港 2020/4/11 sat

非密3原則と市長がテレビCMで訴えている最中、お膝元からガラガラ崩れています。市内の主要な県立と私立の病院で相次いで、武漢肺炎罹患者発覚。本日は、その周辺も感染していて、いよいよ市中感染が濃厚になってきています。本日も断密行動中ですが、接触者は河原で某氏、ホームセンターのレジのお姉さんの二人。

RJNT 102300Z VRB01KT 9999 FEW030 SCT050 BKN070 08/01 Q1021

20200411_rjnt_00toyamabay

朝は天然生簀の富山湾から収穫。

20200411_rjnt_01ja65an

ANA313 RJTT-RJNT JA65AN B737-881

20200411_rjnt_02bird

鳥さんに監視されています。

RJNT 110000Z VRB02KT 9999 FEW030 BKN070 10/01 Q1021

20200411_rjnt_03ja119w

「とやま」さんは、朝から準備中

20200411_rjnt_04ja65an

ANA316 RJNT-RJTT JA65AN B737-881

20200411_rjnt_05ja119w

JA119W↑ AW139 富山県消防防災

RJNT 110100Z VRB03KT 9999 FEW040 12/01 Q1020

20200411_rjnt_06ja119w

JA119W↓ このあとシエスタ

20200411_rjnt_07ja6502

JA6502↓ AS350B3 AKF

RJNT 110400Z 02006KT 310V080 9999 FEW040 BKN060 12/02 Q1019

20200411_rjnt_08ja6502

JA6502↓ 荷役ミッションで忙しそうだ。

RJNT 110500Z 35007KT 9999 FEW040 BKN060 12/02 Q1018

20200411_rjnt_09ja10ym

帰り道に入感。立ち寄ってみました。

RJNT 110600Z 36006KT 9999 FEW040 BKN060 12/02 Q1018

20200411_rjnt_10ja10ym

JA10YM A109SP SAK 富山県ドクターヘリ

###

###

| | コメント (0)

2020/04/08

定点 富山空港他 2020/4/8 wed

都市部に緊急事態宣言が発令され、武漢肺炎との闘いは、守勢に回ってきました。自己防衛に努めて、非密三原則やよ!(断密でもいいけど)

と、できるだけロンリーで行動しているのですが、知らない人でも近づいてくるのよねぇ。本日の接触者、駐車場で某氏、ドクヘリで写真撮ろうとしたおばちゃん、河原で某氏、河原で通りすがりのおっちゃん(きゃ、話しかけないで)

RJNT 072300Z VRB02KT CAVOK 12/00 Q1013

20200408_rjnt_00ja55an

ANA313 RJTT-RJNT JA55AN B737-881

20200408_rjnt_01ja55an

ようやくギアダウン

20200408_rjnt_02jintsu

櫻と神通

RJNT 080000Z 15004KT 080V220 CAVOK 14/M00 Q1012

20200408_rjnt_03ja10ym

対岸に着いたら、ドクヘリさんが頭上通過

20200408_rjnt_04ja10ym

散水が必要な場所だったので、着陸に間に合ってしまいました。

20200408_rjnt_05ja10ym

救急車待ち

20200408_rjnt_06fdp

ようやく到着。大きい公園は入り口が判りにくくて、ぐるーと回ってしまいましたね。

20200408_rjnt_07fdp

ポンプ車で再度散水中

20200408_rjnt_08ja10ym

JA10YM A109SP SAK 富山県ドクターヘリ

20200408_rjnt_09ja55an

ANA316 RJNT-RJTT JA55AN B737-881

RW20上がりで、頭上をクライムして行きました。

RJNT 080100Z VRB04KT 9999 FEW080 SCT090 BKN100 16/M01 Q1011

20200408_rjnt_10ja10ym

ドクターは救急車添乗で、ドクター回収に向かいます。

###

 

###

20200408_rjnt_11terminal

空港に寄ってみた

20200408_rjnt_12terminal

この時間まで便がありません。

20200408_rjnt_13terminal

入管事務所があるので、時折外人がチラホラ

RJNT 080200Z 01006KT 320V070 9999 FEW060 SCT090 17/01 Q1011

20200408_rjnt_14ja139t

JA139T↓ AW139 富山県警察

20200408_rjnt_15ja10ym

本日の2回目のドクヘリさん

20200408_rjnt_16ja10ym

JA10YM↑ 丁度、桜が見ごろでした。

RJNT 080300Z 01006KT 330V060 9999 FEW060 SCT090 17/05 Q1010

20200408_rjnt_17hida

道草して、東八尾 櫻とひだ

20200408_rjnt_18hida

じっくり狙いたくもありますが・・・

20200408_rjnt_19pp

櫻と発電所

20200408_rjnt_20pp

頭上を飛ぶ飛行機がいないのが寂しい。

RJNT 080400Z 36008KT 330V030 9999 FEW060 SCT090 18/05 Q1010

20200408_rjnt_21ja139t

JA139T↑ 午後も忙しい

###

 

###

20200408_rjnt_22ja119w

「つるぎ」さんが飛び立ったら「とやま」さん

20200408_rjnt_23ja119w

連日訓練が続いています。

20200408_rjnt_24ja119w

JA119W↑ AW139 富山県消防防災

この後、チョコっと追っかけ。

| | コメント (0)

より以前の記事一覧

その他のカテゴリー

BI Boading record aircraft Boading record ship FlightTracking lighthouse NAVAIDS RJNT LOG SKY MASSAGE US NAVY USMC うみ おか そら てつ アクシデント エアロック チーム室屋 三沢飛行場 上五島空港 下地島空港 下総飛行場 与論空港 与那国空港 中標津空港 中部国際空港 久米島空港 五島福江空港 仙台空港 伊江島空港 但馬空港 佐賀空港 入間飛行場 八尾空港 八戸飛行場 出雲空港 函館空港 利尻空港 北九州空港 北大東空港 十勝飛行場 千歳飛行場 南大東空港 博物館 厚木飛行場 名古屋飛行場 喜界空港 嘉手納飛行場 場外 壱岐空港 多良間空港 大分空港 大湊飛行場 大阪国際空港 大館能代空港 天草空港 奄美空港 奥尻空港 宇部山口空港 宇都宮飛行場 宮古空港 宮崎空港 富山空港 対馬空港 小松島飛行場 小松飛行場 屋久島空港 山形空港 岐阜飛行場 岡南飛行場 岡山空港 岩国飛行場 帯広空港 広島空港 庄内空港 徳之島空港 徳島飛行場 成田国際空港 新島空港 新潟空港 新田原飛行場 旭川空港 旭川飛行場 明野飛行場 普天間飛行場 木更津飛行場 札幌飛行場 東京国際空港 松山空港 松島飛行場 松本空港 横田飛行場 沖永良部空港 波照間空港 浜松飛行場 海上保安庁 海上自衛隊 海外 熊本空港 百里飛行場 相馬原飛行場 石垣空港 石見空港 礼文空港 神戸空港 神津島空港 福井空港 福岡空港 福島空港 秋田空港 稚内空港 種子島空港 空撮 立川飛行場 築城飛行場 粟国空港 美保飛行場 能登空港 舞鶴飛行場 航空自衛隊 芦屋飛行場 花巻空港 調布飛行場 警務消防 那覇空港 釧路空港 長崎空港 関西国際空港 陸上自衛隊 隠岐空港 霞ヶ浦飛行場 霞目飛行場 青森空港 静岡空港 静浜飛行場 飛行場跡 飛行船 鹿児島空港 鹿屋飛行場